CST,Max TemperatureF,Mean TemperatureF,Min TemperatureF,Max Dew PointF,MeanDew PointF,Min DewpointF,Max Humidity, Mean Humidity, Min Humidity, Max Sea Level PressureIn, Mean Sea Level PressureIn, Min Sea Level PressureIn, Max VisibilityMiles, Mean VisibilityMiles, Min VisibilityMiles, Max Wind SpeedMPH, Mean Wind SpeedMPH, Max Gust SpeedMPH,PrecipitationIn, CloudCover, Events, WindDirDegrees
2012-12-1,44,38,33,43,36,32,100,85,70,30.11,29.89,29.74,5,3,1,10,7,,0.00,8,,132
2012-12-2,44,38,33,43,36,32,100,93,81,30.03,29.95,29.83,3,2,0,13,2,,0.00,8,Fog,17
2012-12-3,62,48,33,52,42,30,100,79,58,29.94,29.76,29.58,10,6,1,16,6,26,0.00,6,,216
2012-12-4,41,32,23,30,21,12,87,59,42,30.41,30.15,29.95,10,10,10,22,6,23,0.00,0,,311
2012-12-5,37,28,19,21,14,10,74,55,41,30.43,30.27,30.02,10,10,7,13,6,17,0.00,1,Snow,127
2012-12-6,46,40,33,37,30,21,81,69,52,30.02,29.90,29.82,10,10,4,13,7,18,0.14,4,Rain,239
2012-12-7,33,30,28,27,23,21,80,72,64,30.04,30.01,29.96,10,10,10,13,6,16,0.00,3,,344
2012-12-8,33,30,26,27,23,21,86,75,60,30.09,30.04,30.01,10,10,10,7,3,,0.00,4,,120
2012-12-9,32,31,30,32,29,25,100,92,75,30.05,29.89,29.77,10,4,0,12,6,,0.32,8,Snow,115
2012-12-10,30,19,8,27,15,5,93,81,74,29.95,29.90,29.79,10,9,2,17,8,23,0.00,7,Snow,302
2012-12-11,26,17,8,21,14,5,93,80,68,30.06,29.92,29.84,10,9,3,9,3,,0.00,7,Snow,237
2012-12-12,41,30,19,27,20,16,93,67,39,30.07,30.01,29.93,10,9,5,16,5,30,0.00,2,,187
2012-12-13,37,29,21,25,19,14,93,56,38,30.14,30.03,29.99,10,10,10,14,7,25,0.00,0,,231
2012-12-14,37,28,19,30,23,18,100,79,56,30.16,30.04,29.86,10,10,7,9,3,,0.00,1,,153
2012-12-15,37,35,33,36,34,30,93,91,75,29.86,29.61,29.51,10,4,0,10,5,,0.26,8,Fog-Rain,144
2012-12-16,37,30,23,36,29,21,100,92,80,29.79,29.67,29.52,10,7,2,13,8,16,0.00,8,Rain,298
2012-12-17,26,24,21,21,20,18,93,84,80,29.80,29.76,29.72,10,10,7,13,4,16,0.00,8,,328
2012-12-18,30,28,26,27,24,21,86,81,80,29.86,29.72,29.64,10,7,3,9,4,,0.00,8,,101
2012-12-19,33,32,30,30,27,25,93,84,75,30.02,29.96,29.88,10,8,3,6,1,,0.00,8,Snow,196
2012-12-20,32,26,19,28,24,12,93,86,74,29.92,29.77,29.65,10,5,1,25,10,37,0.09,8,Snow,339
2012-12-21,23,16,5,12,8,3,92,70,54,30.27,30.16,29.94,10,10,10,26,14,31,0.00,0,,312
2012-12-22,28,16,3,16,8,0,93,77,43,30.23,30.07,29.97,10,10,4,6,1,,0.00,0,,155
2012-12-23,23,16,10,14,12,9,92,77,63,30.12,30.06,30.00,10,10,10,8,4,,0.00,2,,359
2012-12-24,23,16,8,14,10,0,86,72,62,30.25,30.06,29.96,10,10,4,12,4,16,0.00,3,Snow,331
2012-12-25,14,8,1,3,1,-4,85,74,57,30.46,30.40,30.26,10,10,10,9,5,,0.00,0,,324
2012-12-26,19,10,1,10,4,-4,85,77,63,30.39,30.30,30.24,10,10,7,9,4,,0.00,1,,315
2012-12-27,21,11,1,18,8,-2,93,80,68,30.27,30.22,30.14,10,9,2,7,2,,0.00,4,Snow,304
2012-12-28,26,22,19,21,18,18,93,88,74,30.14,30.04,29.97,10,5,2,8,1,,0.10,8,Snow,340
2012-12-29,21,18,14,18,12,7,93,77,68,30.21,30.08,29.98,10,10,5,10,4,10,0.00,7,Snow,303
2012-12-30,28,14,0,21,7,-6,85,76,63,30.25,30.12,29.92,10,10,10,10,2,,0.00,1,,157
2012-12-31,26,13,0,19,7,-8,85,69,53,30.27,30.12,29.95,10,10,10,17,10,22,0.00,2,Snow,320